Time;durP1;ratioP1;P1;durP2;ratioP2;P2;SDS_P1;SDS_P2;PMS_P1;PMS_P2;Temp;Humidity;BMP_temperature;BMP_pressure;BME280_temperature;BME280_humidity;BME280_pressure;Samples;Min_cycle;Max_cycle;Signal;HPM_P1;HPM_P2
2023/03/12 00:00:26;;;;;;;13.10;7.00;;;;;-0.30;95830.00;;;;8414983;28;20299;-75
2023/03/12 00:04:33;;;;;;;14.80;6.97;;;;;-0.40;95837.00;;;;8407581;28;20272;-76
2023/03/12 00:08:37;;;;;;;11.27;6.30;;;;;-0.50;95833.00;;;;8409013;28;20225;-75
2023/03/12 00:12:45;;;;;;;15.37;7.43;;;;;-0.60;95844.00;;;;8410012;28;20192;-74
2023/03/12 00:16:48;;;;;;;10.80;6.10;;;;;-0.60;95848.00;;;;8410033;28;20235;-74
2023/03/12 00:20:55;;;;;;;12.40;7.47;;;;;-0.60;95854.00;;;;8417043;28;20196;-74
2023/03/12 00:24:58;;;;;;;13.90;6.80;;;;;-0.60;95849.00;;;;8408312;28;20202;-74
2023/03/12 00:29:02;;;;;;;14.33;6.80;;;;;-0.60;95853.00;;;;8405297;28;20200;-75
2023/03/12 00:33:06;;;;;;;14.93;5.83;;;;;-0.60;95861.00;;;;8406760;28;20691;-73
2023/03/12 00:37:10;;;;;;;14.57;6.90;;;;;-0.60;95853.00;;;;8408197;28;20227;-74
2023/03/12 00:41:14;;;;;;;12.60;6.73;;;;;-0.60;95849.00;;;;8410705;28;20207;-73
2023/03/12 00:45:19;;;;;;;12.27;6.93;;;;;-0.60;95865.00;;;;8401499;28;20188;-73
2023/03/12 00:49:22;;;;;;;13.53;7.07;;;;;-0.60;95864.00;;;;8409243;28;20201;-73
2023/03/12 00:53:27;;;;;;;13.50;6.63;;;;;-0.70;95861.00;;;;8419330;28;20251;-71
2023/03/12 00:57:32;;;;;;;11.20;6.60;;;;;-0.80;95868.00;;;;8417855;28;20262;-72
2023/03/12 01:01:38;;;;;;;14.53;6.97;;;;;-0.90;95853.00;;;;8415514;28;20220;-71
2023/03/12 01:05:43;;;;;;;12.83;6.50;;;;;-1.00;95862.00;;;;8418808;28;20653;-71
2023/03/12 01:09:46;;;;;;;12.97;6.37;;;;;-1.10;95857.00;;;;8415673;28;20292;-71
2023/03/12 01:13:49;;;;;;;12.00;6.80;;;;;-1.20;95861.00;;;;8409645;28;20208;-72
2023/03/12 01:17:55;;;;;;;12.23;7.20;;;;;-1.20;95858.00;;;;8411970;28;20284;-71
2023/03/12 01:21:58;;;;;;;10.53;7.13;;;;;-1.30;95848.00;;;;8414725;28;20201;-71
2023/03/12 01:26:22;;;;;;;13.30;6.63;;;;;-1.40;95859.00;;;;8408267;28;20206;-71
2023/03/12 01:30:25;;;;;;;11.23;6.30;;;;;-1.40;95854.00;;;;8420971;28;20650;-72
2023/03/12 01:34:32;;;;;;;13.97;6.53;;;;;-1.50;95856.00;;;;8421508;28;20199;-72
2023/03/12 01:38:35;;;;;;;14.67;6.70;;;;;-1.50;95856.00;;;;8407247;28;20673;-71
2023/03/12 01:42:38;;;;;;;14.30;7.13;;;;;-1.60;95845.00;;;;8408268;28;20725;-71
2023/03/12 01:46:44;;;;;;;14.43;6.80;;;;;-1.60;95840.00;;;;8413857;28;20266;-71
2023/03/12 01:50:49;;;;;;;12.37;6.10;;;;;-1.60;95851.00;;;;8416397;28;20199;-71
2023/03/12 01:55:02;;;;;;;12.77;5.73;;;;;-1.70;95848.00;;;;8400042;28;20253;-72
2023/03/12 01:59:10;;;;;;;11.43;6.77;;;;;-1.80;95834.00;;;;8414618;28;20276;-72
2023/03/12 02:03:14;;;;;;;14.60;7.07;;;;;-1.90;95841.00;;;;8410021;28;20219;-72
2023/03/12 02:07:19;;;;;;;13.03;7.10;;;;;-1.90;95849.00;;;;8408734;28;20196;-72
2023/03/12 02:11:22;;;;;;;13.83;6.63;;;;;-1.90;95836.00;;;;8403401;28;20192;-73
2023/03/12 02:15:27;;;;;;;14.80;7.10;;;;;-1.90;95837.00;;;;8408233;28;20204;-73
2023/03/12 02:19:44;;;;;;;13.40;6.17;;;;;-1.90;95846.00;;;;8410271;28;20895;-72
2023/03/12 02:23:56;;;;;;;10.17;5.93;;;;;-2.00;95853.00;;;;8415583;28;20211;-73
2023/03/12 02:28:04;;;;;;;13.07;6.80;;;;;-2.00;95851.00;;;;8415286;28;20203;-73
2023/03/12 02:32:08;;;;;;;13.17;6.27;;;;;-2.10;95845.00;;;;8398983;28;20654;-73
2023/03/12 02:36:13;;;;;;;16.37;6.80;;;;;-2.10;95854.00;;;;8415685;28;20192;-73
2023/03/12 02:40:24;;;;;;;14.17;6.83;;;;;-2.10;95855.00;;;;8414567;28;20248;-73
2023/03/12 02:44:32;;;;;;;13.00;6.50;;;;;-2.20;95850.00;;;;8402890;28;20206;-73
2023/03/12 02:48:35;;;;;;;14.53;6.40;;;;;-2.20;95853.00;;;;8413949;28;20990;-74
2023/03/12 02:52:38;;;;;;;13.43;6.57;;;;;-2.20;95844.00;;;;8412595;28;20203;-74
2023/03/12 02:56:44;;;;;;;12.90;5.93;;;;;-2.30;95844.00;;;;8403793;28;20223;-75
2023/03/12 03:00:49;;;;;;;13.60;6.57;;;;;-2.30;95853.00;;;;8439723;22;20211;-75
2023/03/12 03:04:58;;;;;;;13.37;6.40;;;;;-2.30;95866.00;;;;8360977;28;20204;-75
2023/03/12 03:09:05;;;;;;;14.30;6.27;;;;;-2.30;95852.00;;;;8408418;28;20195;-76
2023/03/12 03:13:08;;;;;;;13.17;7.00;;;;;-2.30;95866.00;;;;8402669;28;20303;-77
2023/03/12 03:17:13;;;;;;;16.03;6.33;;;;;-2.30;95865.00;;;;8406826;28;20196;-78
2023/03/12 03:21:17;;;;;;;17.63;7.83;;;;;-2.20;95862.00;;;;8409209;28;20243;-78
2023/03/12 03:25:22;;;;;;;15.27;6.90;;;;;-2.10;95865.00;;;;8404990;28;20284;-81
2023/03/12 03:29:25;;;;;;;14.20;6.00;;;;;-2.10;95866.00;;;;8408405;28;20199;-79
2023/03/12 03:33:32;;;;;;;10.20;6.50;;;;;-2.00;95875.00;;;;8406723;28;20248;-78
2023/03/12 03:37:35;;;;;;;16.30;6.33;;;;;-1.90;95882.00;;;;8399736;28;20214;-78
2023/03/12 03:41:38;;;;;;;11.83;6.33;;;;;-1.80;95881.00;;;;8401350;28;20223;-78
2023/03/12 03:45:43;;;;;;;14.67;6.80;;;;;-1.70;95886.00;;;;8409967;28;20195;-81
2023/03/12 03:49:50;;;;;;;20.17;7.83;;;;;-1.60;95906.00;;;;8385569;28;20696;-81
2023/03/12 03:53:59;;;;;;;13.10;6.60;;;;;-1.40;95886.00;;;;8403128;28;20206;-82
2023/03/12 03:58:06;;;;;;;16.67;7.47;;;;;-1.20;95911.00;;;;8394393;28;20203;-78
2023/03/12 04:02:09;;;;;;;17.97;7.70;;;;;-1.10;95905.00;;;;8398880;28;20227;-80
2023/03/12 04:06:15;;;;;;;14.77;6.53;;;;;-0.90;95910.00;;;;8358267;28;20642;-80
2023/03/12 04:10:20;;;;;;;16.00;6.90;;;;;-0.80;95905.00;;;;8362240;28;20243;-79
2023/03/12 04:14:23;;;;;;;17.07;7.43;;;;;-0.70;95912.00;;;;8361064;28;20228;-78
2023/03/12 04:18:29;;;;;;;15.40;7.33;;;;;-0.60;95901.00;;;;8366579;28;20418;-77
2023/03/12 04:22:33;;;;;;;16.70;7.47;;;;;-0.60;95905.00;;;;8379424;28;20188;-77
2023/03/12 04:26:36;;;;;;;14.20;7.17;;;;;-0.50;95902.00;;;;8371336;28;20205;-76
2023/03/12 04:30:40;;;;;;;17.90;6.53;;;;;-0.60;95898.00;;;;8377909;28;20234;-76
2023/03/12 04:34:44;;;;;;;14.47;6.87;;;;;-0.60;95901.00;;;;8379279;28;20663;-75
2023/03/12 04:38:51;;;;;;;10.93;7.17;;;;;-0.50;95895.00;;;;8374770;28;21031;-75
2023/03/12 04:42:54;;;;;;;14.23;7.63;;;;;-0.50;95884.00;;;;8370753;28;21031;-75
2023/03/12 04:46:57;;;;;;;16.13;7.20;;;;;-0.50;95881.00;;;;8373155;28;20206;-75
2023/03/12 04:51:02;;;;;;;12.73;6.80;;;;;-0.50;95887.00;;;;8379109;28;20198;-75
2023/03/12 04:55:08;;;;;;;16.23;6.73;;;;;-0.50;95884.00;;;;8376957;28;20745;-77
2023/03/12 04:59:11;;;;;;;14.33;6.77;;;;;-0.50;95886.00;;;;8377268;28;20220;-77
2023/03/12 05:03:19;;;;;;;15.17;7.73;;;;;-0.40;95890.00;;;;8346704;28;20254;-78
2023/03/12 05:07:25;;;;;;;14.73;6.53;;;;;-0.40;95898.00;;;;8373897;28;20649;-77
2023/03/12 05:11:31;;;;;;;17.07;7.27;;;;;-0.40;95883.00;;;;8379918;28;20196;-76
2023/03/12 05:15:37;;;;;;;16.37;7.23;;;;;-0.30;95885.00;;;;8387322;28;20254;-76
2023/03/12 05:19:40;;;;;;;14.73;6.80;;;;;-0.30;95883.00;;;;8379384;28;20229;-77
2023/03/12 05:23:46;;;;;;;14.73;6.50;;;;;-0.20;95878.00;;;;8382860;28;20185;-78
2023/03/12 05:27:50;;;;;;;16.67;6.90;;;;;-0.20;95889.00;;;;8381532;28;20205;-78
2023/03/12 05:31:53;;;;;;;13.17;6.53;;;;;-0.10;95885.00;;;;8372889;28;20200;-76
2023/03/12 05:35:58;;;;;;;13.27;6.73;;;;;-0.10;95885.00;;;;8353318;28;20200;-75
2023/03/12 05:40:06;;;;;;;14.07;7.17;;;;;0.00;95890.00;;;;8379317;28;20262;-76
2023/03/12 05:44:14;;;;;;;14.43;6.37;;;;;0.00;95890.00;;;;8371047;28;20220;-76
2023/03/12 05:48:22;;;;;;;13.97;6.60;;;;;0.00;95899.00;;;;8384781;28;20204;-76
2023/03/12 05:52:25;;;;;;;11.17;6.33;;;;;0.00;95894.00;;;;8381370;28;20291;-76
2023/03/12 05:56:28;;;;;;;11.87;6.40;;;;;0.00;95893.00;;;;8377751;28;20285;-77
2023/03/12 06:00:36;;;;;;;11.80;6.13;;;;;0.10;95901.00;;;;8374987;28;20217;-77
2023/03/12 06:04:41;;;;;;;15.47;6.20;;;;;0.20;95896.00;;;;8351403;28;20213;-77
2023/03/12 06:08:44;;;;;;;13.13;7.23;;;;;0.20;95909.00;;;;8382650;28;20197;-77
2023/03/12 06:12:47;;;;;;;14.43;6.83;;;;;0.30;95899.00;;;;8370963;28;20210;-76
2023/03/12 06:16:55;;;;;;;15.87;7.10;;;;;0.40;95905.00;;;;8376368;28;20256;-78
2023/03/12 06:21:09;;;;;;;15.17;6.57;;;;;0.60;95892.00;;;;8380914;28;20224;-78
2023/03/12 06:25:12;;;;;;;11.37;7.27;;;;;0.80;95894.00;;;;8377546;28;20707;-77
2023/03/12 06:29:17;;;;;;;16.67;7.80;;;;;1.10;95915.00;;;;8385135;28;20229;-77
2023/03/12 06:33:22;;;;;;;17.37;7.17;;;;;1.40;95903.00;;;;8377264;28;20241;-78
2023/03/12 06:37:25;;;;;;;14.23;7.07;;;;;1.70;95907.00;;;;8383120;28;20604;-79
2023/03/12 06:41:31;;;;;;;18.20;8.23;;;;;1.80;95907.00;;;;8380776;28;20932;-78
2023/03/12 06:45:34;;;;;;;14.00;7.37;;;;;1.90;95906.00;;;;8366688;28;20197;-77
2023/03/12 06:49:41;;;;;;;15.40;7.67;;;;;2.00;95909.00;;;;8382363;28;20801;-77
2023/03/12 06:53:47;;;;;;;17.27;8.50;;;;;2.20;95927.00;;;;8381431;28;20198;-77
2023/03/12 06:57:51;;;;;;;20.50;8.43;;;;;2.40;95926.00;;;;8372707;28;20194;-77
2023/03/12 07:01:54;;;;;;;17.93;9.50;;;;;2.60;95937.00;;;;8380576;28;20287;-77
2023/03/12 07:06:00;;;;;;;13.63;8.10;;;;;2.80;95949.00;;;;8372519;28;20818;-77
2023/03/12 07:10:06;;;;;;;15.13;7.37;;;;;2.90;95952.00;;;;8369413;28;20281;-77
2023/03/12 07:14:10;;;;;;;15.27;7.40;;;;;3.10;95959.00;;;;8372131;28;20325;-76
2023/03/12 07:18:14;;;;;;;12.13;7.07;;;;;3.10;95962.00;;;;8379470;28;20198;-79
2023/03/12 07:22:21;;;;;;;14.37;7.27;;;;;3.30;95960.00;;;;8374146;28;20687;-79
2023/03/12 07:26:24;;;;;;;11.77;6.97;;;;;3.40;95951.00;;;;8371503;28;20589;-76
2023/03/12 07:30:27;;;;;;;9.63;6.47;;;;;3.50;95945.00;;;;8367535;28;20268;-78
2023/03/12 07:34:32;;;;;;;13.33;6.53;;;;;3.70;95953.00;;;;8371927;28;20200;-77
2023/03/12 07:38:41;;;;;;;10.27;6.40;;;;;3.80;95960.00;;;;8371351;28;20197;-76
2023/03/12 07:42:45;;;;;;;14.30;6.23;;;;;3.80;95952.00;;;;8368860;28;20235;-79
2023/03/12 07:46:48;;;;;;;15.43;6.60;;;;;4.00;95951.00;;;;8372694;28;20295;-78
2023/03/12 07:50:54;;;;;;;12.10;6.17;;;;;4.30;95957.00;;;;8369645;28;20230;-78
2023/03/12 07:54:59;;;;;;;10.93;6.17;;;;;4.50;95953.00;;;;8380506;28;20207;-82
2023/03/12 07:59:06;;;;;;;9.47;5.60;;;;;4.80;95949.00;;;;8371301;28;20763;-81
2023/03/12 08:03:11;;;;;;;10.60;6.20;;;;;5.10;95941.00;;;;8367267;28;20246;-83
2023/03/12 08:07:16;;;;;;;9.23;5.73;;;;;4.90;95940.00;;;;8381710;28;20284;-82
2023/03/12 08:11:24;;;;;;;12.90;6.07;;;;;4.90;95955.00;;;;8373496;28;20224;-81
2023/03/12 08:15:30;;;;;;;13.87;5.90;;;;;5.20;95939.00;;;;8378455;28;20204;-77
2023/03/12 08:19:33;;;;;;;10.17;5.73;;;;;5.40;95940.00;;;;8377907;28;20242;-78
2023/03/12 08:23:36;;;;;;;10.63;6.30;;;;;5.40;95931.00;;;;8371384;28;20207;-78
2023/03/12 08:27:44;;;;;;;10.80;5.07;;;;;5.60;95929.00;;;;8373501;28;20308;-77
2023/03/12 08:31:50;;;;;;;7.13;5.30;;;;;5.90;95926.00;;;;8375854;28;20669;-78
2023/03/12 08:36:10;;;;;;;7.77;5.20;;;;;6.00;95932.00;;;;8372233;28;20261;-79
2023/03/12 08:40:13;;;;;;;8.73;5.20;;;;;6.20;95933.00;;;;8349798;28;20307;-79
2023/03/12 08:44:21;;;;;;;8.83;4.87;;;;;6.40;95942.00;;;;8376301;28;20196;-83
2023/03/12 08:48:33;;;;;;;8.07;3.87;;;;;6.70;95942.00;;;;8373017;28;20277;-81
2023/03/12 08:52:41;;;;;;;6.53;4.00;;;;;6.90;95935.00;;;;8361368;28;20215;-80
2023/03/12 08:56:50;;;;;;;6.70;3.77;;;;;7.20;95931.00;;;;8381269;28;20225;-81
2023/03/12 09:00:57;;;;;;;4.47;3.40;;;;;7.50;95924.00;;;;8358784;28;20235;-84
2023/03/12 09:05:00;;;;;;;4.27;3.33;;;;;7.60;95937.00;;;;8375159;28;20266;-81
2023/03/12 09:09:04;;;;;;;3.97;2.83;;;;;7.60;95941.00;;;;8384149;28;20220;-81
2023/03/12 09:13:09;;;;;;;7.90;2.93;;;;;7.50;95933.00;;;;8380957;28;20219;-79
2023/03/12 09:17:13;;;;;;;3.97;2.87;;;;;7.10;95936.00;;;;8386085;28;20204;-78
2023/03/12 09:21:18;;;;;;;5.07;2.60;;;;;7.10;95934.00;;;;8372962;28;20225;-78
2023/03/12 09:25:22;;;;;;;7.03;3.20;;;;;7.30;95938.00;;;;8360106;28;20188;-76
2023/03/12 09:29:25;;;;;;;9.03;3.43;;;;;7.60;95939.00;;;;8359629;28;20251;-77
2023/03/12 09:33:34;;;;;;;2.57;2.30;;;;;7.60;95925.00;;;;8374424;28;20209;-80
2023/03/12 09:37:42;;;;;;;4.40;2.90;;;;;7.30;95935.00;;;;8365898;28;20222;-77
2023/03/12 09:41:48;;;;;;;4.13;2.80;;;;;7.20;95928.00;;;;8381164;28;20285;-77
2023/03/12 09:45:55;;;;;;;3.03;2.60;;;;;7.10;95924.00;;;;8382773;28;20195;-78
2023/03/12 09:50:07;;;;;;;4.27;2.93;;;;;7.00;95938.00;;;;8371696;28;20593;-79
2023/03/12 09:54:24;;;;;;;5.13;2.63;;;;;6.80;95939.00;;;;8380813;28;20232;-78
2023/03/12 09:58:32;;;;;;;7.10;3.20;;;;;6.80;95937.00;;;;8383512;28;20248;-84
2023/03/12 10:03:37;;;;;;;3.53;3.17;;;;;7.10;95948.00;;;;8380881;28;20798;-76
2023/03/12 10:07:52;;;;;;;4.87;3.27;;;;;7.10;95945.00;;;;8381217;28;20584;-79
2023/03/12 10:12:01;;;;;;;4.30;3.07;;;;;7.10;95940.00;;;;8381268;28;20284;-79
2023/03/12 10:16:14;;;;;;;4.90;3.20;;;;;7.20;95936.00;;;;8360308;28;20262;-77
2023/03/12 10:20:54;;;;;;;9.63;3.73;;;;;7.50;95924.00;;;;8366733;28;20200;-78
2023/03/12 10:25:11;;;;;;;7.93;3.50;;;;;7.40;95939.00;;;;8373013;28;20196;-77
2023/03/12 10:29:21;;;;;;;5.23;3.63;;;;;7.50;95937.00;;;;8375485;28;20210;-78
2023/03/12 10:33:30;;;;;;;8.70;4.57;;;;;7.80;95940.00;;;;8376757;28;20192;-79
2023/03/12 10:37:40;;;;;;;6.93;4.27;;;;;8.10;95947.00;;;;8376026;28;20192;-78
2023/03/12 10:41:46;;;;;;;9.37;4.30;;;;;8.20;95947.00;;;;8377622;28;20224;-78
2023/03/12 10:46:01;;;;;;;8.13;4.78;;;;;8.00;95954.00;;;;8379963;28;20726;-79
2023/03/12 10:50:19;;;;;;;11.57;5.23;;;;;7.80;95937.00;;;;8370256;28;20215;-81
2023/03/12 10:54:34;;;;;;;8.73;3.57;;;;;7.70;95934.00;;;;8365984;28;20597;-81
2023/03/12 10:58:40;;;;;;;6.73;4.87;;;;;7.70;95947.00;;;;8372651;28;20581;-79
2023/03/12 11:02:50;;;;;;;11.48;6.07;;;;;7.60;95944.00;;;;8367006;28;20819;-78
2023/03/12 11:07:22;;;;;;;7.20;4.63;;;;;7.30;95934.00;;;;8369613;28;20200;-77
2023/03/12 11:11:32;;;;;;;10.20;5.93;;;;;7.30;95939.00;;;;8310782;28;20700;-77
2023/03/12 11:15:45;;;;;;;8.43;5.23;;;;;7.50;95929.00;;;;8370698;28;20673;-79
2023/03/12 11:19:55;;;;;;;11.07;6.20;;;;;7.70;95948.00;;;;8370182;28;20229;-78
2023/03/12 11:24:10;;;;;;;13.87;7.30;;;;;7.80;95940.00;;;;8367381;28;20789;-79
2023/03/12 11:28:20;;;;;;;14.80;7.67;;;;;7.90;95938.00;;;;8374024;28;20198;-78
2023/03/12 11:32:31;;;;;;;14.23;7.30;;;;;7.80;95947.00;;;;8379961;28;20549;-78
2023/03/12 11:36:49;;;;;;;21.57;9.03;;;;;7.40;95952.00;;;;8378171;28;20602;-79
2023/03/12 11:41:04;;;;;;;26.33;8.37;;;;;7.10;95952.00;;;;8367392;28;20581;-82
2023/03/12 11:45:18;;;;;;;18.23;8.00;;;;;6.90;95946.00;;;;8374528;28;20629;-80
2023/03/12 11:49:38;;;;;;;12.60;7.33;;;;;7.00;95947.00;;;;8363043;28;20715;-80
2023/03/12 11:54:11;;;;;;;11.63;7.17;;;;;7.00;95947.00;;;;8372079;28;20265;-80
2023/03/12 11:58:30;;;;;;;11.67;7.10;;;;;7.20;95939.00;;;;8367780;28;20196;-81
2023/03/12 12:03:05;;;;;;;14.97;8.00;;;;;7.20;95936.00;;;;8358857;28;20228;-83
2023/03/12 12:07:19;;;;;;;11.27;6.83;;;;;7.20;95936.00;;;;8372289;28;20231;-83
2023/03/12 12:11:30;;;;;;;12.43;7.50;;;;;7.20;95929.00;;;;8348993;28;20209;-81
2023/03/12 12:15:43;;;;;;;13.13;6.97;;;;;7.20;95925.00;;;;8377379;28;20279;-81
2023/03/12 12:20:07;;;;;;;10.03;6.97;;;;;7.40;95921.00;;;;8376549;28;20196;-80
2023/03/12 12:24:29;;;;;;;8.27;6.27;;;;;7.30;95915.00;;;;8381925;28;20235;-77
2023/03/12 12:28:54;;;;;;;14.53;7.00;;;;;7.20;95918.00;;;;8382048;28;20193;-79
2023/03/12 12:33:22;;;;;;;113.77;59.20;;;;;7.20;95913.00;;;;8375167;28;20691;-80
2023/03/12 12:37:52;;;;;;;214.13;135.75;;;;;7.00;95908.00;;;;8385532;28;20250;-77
2023/03/12 12:42:02;;;;;;;36.10;27.57;;;;;7.00;95901.00;;;;8381750;28;20301;-79
2023/03/12 12:46:13;;;;;;;20.17;12.50;;;;;7.00;95893.00;;;;8380183;28;20939;-79
2023/03/12 12:50:25;;;;;;;14.03;10.73;;;;;6.90;95890.00;;;;8378683;28;20193;-76
2023/03/12 12:54:41;;;;;;;13.47;8.30;;;;;7.00;95893.00;;;;8373064;28;20697;-80
2023/03/12 12:59:06;;;;;;;14.30;9.37;;;;;7.10;95887.00;;;;8376915;28;20215;-80
2023/03/12 13:03:16;;;;;;;165.37;109.57;;;;;7.10;95886.00;;;;8377043;28;20253;-76
2023/03/12 13:07:34;;;;;;;248.43;138.10;;;;;7.00;95890.00;;;;8372437;28;20196;-77
2023/03/12 13:11:41;;;;;;;31.13;22.80;;;;;7.10;95892.00;;;;8367735;28;20220;-77
2023/03/12 13:15:48;;;;;;;20.33;12.13;;;;;7.30;95886.00;;;;8379441;28;20203;-78
2023/03/12 13:19:59;;;;;;;13.87;8.30;;;;;7.30;95888.00;;;;8386367;28;20196;-78
2023/03/12 13:24:16;;;;;;;12.80;10.00;;;;;7.50;95890.00;;;;8374642;28;20228;-73
2023/03/12 13:28:34;;;;;;;28.20;18.20;;;;;7.50;95881.00;;;;8374918;28;20197;-75
2023/03/12 13:33:12;;;;;;;16.80;13.43;;;;;7.50;95890.00;;;;8370042;28;20210;-74
2023/03/12 13:37:43;;;;;;;16.50;11.83;;;;;7.40;95884.00;;;;8377271;28;20200;-71
2023/03/12 13:41:52;;;;;;;17.43;11.20;;;;;7.20;95885.00;;;;8364171;28;20682;-72
2023/03/12 13:46:05;;;;;;;15.23;9.67;;;;;7.10;95886.00;;;;8370842;28;20201;-72
2023/03/12 13:50:15;;;;;;;16.63;13.27;;;;;7.10;95885.00;;;;8370184;28;20254;-73
2023/03/12 13:54:19;;;;;;;15.93;11.23;;;;;7.10;95883.00;;;;8377354;28;20224;-73
2023/03/12 13:58:28;;;;;;;32.97;24.07;;;;;7.10;95872.00;;;;8373015;28;20196;-70
2023/03/12 14:02:34;;;;;;;23.37;17.57;;;;;7.20;95866.00;;;;8378778;28;20377;-70
2023/03/12 14:07:03;;;;;;;11.13;7.77;;;;;7.20;95862.00;;;;8379308;28;20199;-69
2023/03/12 14:11:33;;;;;;;10.80;6.70;;;;;7.30;95864.00;;;;8375496;28;20189;-69
2023/03/12 14:15:46;;;;;;;11.90;8.00;;;;;7.40;95877.00;;;;8373832;28;20196;-70
2023/03/12 14:19:56;;;;;;;13.30;7.93;;;;;7.50;95876.00;;;;8373801;28;20783;-72
2023/03/12 14:24:03;;;;;;;11.93;7.90;;;;;7.50;95884.00;;;;8362786;28;20720;-71
2023/03/12 14:28:13;;;;;;;12.37;7.47;;;;;7.40;95879.00;;;;8373204;28;20265;-73
2023/03/12 14:32:20;;;;;;;14.33;7.33;;;;;7.50;95878.00;;;;8375883;28;20246;-72
2023/03/12 14:36:32;;;;;;;15.20;7.90;;;;;7.50;95878.00;;;;8375754;28;20204;-72
2023/03/12 14:40:44;;;;;;;12.80;8.70;;;;;7.40;95869.00;;;;8378298;28;20208;-72
2023/03/12 14:44:59;;;;;;;18.23;9.13;;;;;7.40;95869.00;;;;8368290;28;20232;-71
2023/03/12 14:49:02;;;;;;;17.13;8.87;;;;;7.50;95869.00;;;;8378499;28;20204;-71
2023/03/12 14:53:12;;;;;;;20.60;9.83;;;;;7.50;95868.00;;;;8375285;28;20650;-72
2023/03/12 14:57:23;;;;;;;22.30;10.00;;;;;7.50;95868.00;;;;8374456;28;20195;-72
2023/03/12 15:01:29;;;;;;;17.33;9.93;;;;;7.40;95873.00;;;;8367501;28;20220;-70
2023/03/12 15:05:39;;;;;;;14.18;9.77;;;;;7.40;95869.00;;;;8371894;28;20929;-70
2023/03/12 15:09:46;;;;;;;18.45;10.38;;;;;7.40;95875.00;;;;8369784;28;20195;-71
2023/03/12 15:13:55;;;;;;;18.87;10.83;;;;;7.50;95878.00;;;;8371902;28;20910;-71
2023/03/12 15:18:12;;;;;;;19.10;11.10;;;;;7.50;95871.00;;;;8364459;28;20275;-72
2023/03/12 15:22:19;;;;;;;19.10;9.68;;;;;7.60;95878.00;;;;8362095;28;20764;-72
2023/03/12 15:26:32;;;;;;;21.50;10.93;;;;;7.60;95884.00;;;;8372049;28;20271;-71
2023/03/12 15:30:39;;;;;;;20.25;11.48;;;;;7.70;95879.00;;;;8369456;28;20287;-71
2023/03/12 15:34:46;;;;;;;20.77;10.20;;;;;7.70;95875.00;;;;8372400;28;20203;-71
2023/03/12 15:38:55;;;;;;;20.73;11.03;;;;;7.70;95881.00;;;;8369167;28;20262;-72
2023/03/12 15:43:02;;;;;;;19.10;10.80;;;;;7.90;95869.00;;;;8363851;28;20247;-71
2023/03/12 15:47:18;;;;;;;21.73;11.82;;;;;8.00;95870.00;;;;8349042;28;20705;-72
2023/03/12 15:51:31;;;;;;;19.77;11.03;;;;;8.10;95881.00;;;;8367208;28;21058;-71
2023/03/12 15:55:35;;;;;;;22.40;11.37;;;;;8.20;95869.00;;;;8370022;28;20286;-72
2023/03/12 15:59:38;;;;;;;20.87;12.53;;;;;8.40;95859.00;;;;8364010;28;20196;-72
2023/03/12 16:03:46;;;;;;;22.10;11.73;;;;;8.40;95867.00;;;;8367717;28;20232;-71
2023/03/12 16:07:49;;;;;;;21.25;10.73;;;;;8.50;95857.00;;;;8365776;28;20539;-70
2023/03/12 16:11:54;;;;;;;23.08;13.52;;;;;8.60;95868.00;;;;8368710;28;20287;-70
2023/03/12 16:15:59;;;;;;;32.73;17.40;;;;;8.70;95868.00;;;;8352789;28;20684;-70
2023/03/12 16:20:06;;;;;;;21.83;11.50;;;;;8.80;95860.00;;;;8366477;28;20192;-69
2023/03/12 16:24:16;;;;;;;23.92;12.20;;;;;8.80;95867.00;;;;8367008;28;20555;-70
2023/03/12 16:28:23;;;;;;;20.42;13.13;;;;;8.90;95859.00;;;;8360150;28;20204;-71
2023/03/12 16:32:31;;;;;;;23.90;14.93;;;;;8.90;95859.00;;;;8364690;28;20192;-71
2023/03/12 16:36:39;;;;;;;24.98;13.68;;;;;8.90;95869.00;;;;8365497;28;20200;-70
2023/03/12 16:40:50;;;;;;;27.13;13.02;;;;;9.00;95871.00;;;;8367342;28;20645;-70
2023/03/12 16:44:57;;;;;;;25.00;12.25;;;;;8.90;95880.00;;;;8366676;28;20220;-71
2023/03/12 16:49:02;;;;;;;24.87;12.03;;;;;8.80;95897.00;;;;8363521;28;20215;-70
2023/03/12 16:53:11;;;;;;;18.92;10.40;;;;;8.70;95896.00;;;;8364139;28;20197;-71
2023/03/12 16:57:22;;;;;;;24.10;10.43;;;;;8.60;95899.00;;;;8368064;28;20207;-70
2023/03/12 17:01:27;;;;;;;18.00;9.80;;;;;8.50;95896.00;;;;8365120;28;20228;-69
2023/03/12 17:05:31;;;;;;;26.23;14.43;;;;;8.50;95890.00;;;;8365864;28;20220;-70
2023/03/12 17:09:37;;;;;;;17.60;10.00;;;;;8.40;95894.00;;;;8370273;28;20208;-69
2023/03/12 17:13:40;;;;;;;17.47;9.50;;;;;8.40;95902.00;;;;8366203;28;20211;-70
2023/03/12 17:17:43;;;;;;;17.25;9.52;;;;;8.40;95903.00;;;;8376112;28;20632;-69
2023/03/12 17:21:47;;;;;;;23.88;11.32;;;;;8.30;95899.00;;;;8370807;28;20215;-71
2023/03/12 17:25:52;;;;;;;21.52;12.13;;;;;8.30;95907.00;;;;8371730;28;20259;-69
2023/03/12 17:29:55;;;;;;;22.27;11.53;;;;;8.20;95910.00;;;;8378751;28;21625;-69
2023/03/12 17:34:02;;;;;;;22.92;11.60;;;;;8.10;95910.00;;;;8353434;28;20197;-70
2023/03/12 17:38:05;;;;;;;19.50;12.07;;;;;8.10;95913.00;;;;8374982;28;20801;-69
2023/03/12 17:42:11;;;;;;;33.43;16.70;;;;;8.10;95906.00;;;;8377607;28;20285;-68
2023/03/12 17:46:16;;;;;;;26.02;13.55;;;;;8.10;95912.00;;;;8376713;28;20526;-68
2023/03/12 17:50:19;;;;;;;23.17;12.50;;;;;8.10;95905.00;;;;8376644;28;20196;-67
2023/03/12 17:54:25;;;;;;;21.67;12.53;;;;;8.00;95895.00;;;;8371610;28;20255;-68
2023/03/12 17:58:32;;;;;;;25.15;12.07;;;;;8.00;95894.00;;;;8371042;28;20291;-67
2023/03/12 18:02:37;;;;;;;29.37;12.17;;;;;8.00;95890.00;;;;8369246;28;20232;-68
2023/03/12 18:06:43;;;;;;;25.90;12.75;;;;;7.90;95902.00;;;;8363333;28;20242;-68
2023/03/12 18:10:48;;;;;;;30.83;14.37;;;;;7.80;95916.00;;;;8381188;28;20739;-68
2023/03/12 18:14:53;;;;;;;35.73;16.33;;;;;7.80;95917.00;;;;8376809;28;20262;-68
2023/03/12 18:18:56;;;;;;;33.33;15.93;;;;;7.70;95923.00;;;;8383680;28;20200;-68
2023/03/12 18:22:59;;;;;;;42.25;18.63;;;;;7.50;95927.00;;;;8363079;28;20696;-68
2023/03/12 18:27:04;;;;;;;39.17;18.23;;;;;7.40;95931.00;;;;8374748;28;20247;-69
2023/03/12 18:31:13;;;;;;;54.50;23.50;;;;;7.10;95926.00;;;;8372948;28;20189;-69
2023/03/12 18:35:16;;;;;;;46.08;20.50;;;;;7.00;95927.00;;;;8379128;28;21031;-69
2023/03/12 18:39:23;;;;;;;42.90;18.97;;;;;6.90;95934.00;;;;8374440;28;20200;-70
2023/03/12 18:43:27;;;;;;;50.90;21.70;;;;;6.90;95940.00;;;;8376501;28;20257;-69
2023/03/12 18:47:38;;;;;;;64.77;27.43;;;;;6.90;95943.00;;;;8372957;28;20687;-70
2023/03/12 18:51:41;;;;;;;58.45;22.65;;;;;7.00;95941.00;;;;8367276;28;20241;-70
2023/03/12 18:55:54;;;;;;;51.63;20.83;;;;;7.00;95953.00;;;;8371028;28;20192;-69
2023/03/12 18:59:58;;;;;;;50.53;20.50;;;;;7.10;95953.00;;;;8368363;28;20216;-70
2023/03/12 19:04:02;;;;;;;50.17;19.57;;;;;7.20;95941.00;;;;8366885;28;20228;-69
2023/03/12 19:08:06;;;;;;;45.70;18.80;;;;;7.20;95949.00;;;;8364679;28;20201;-69
2023/03/12 19:12:10;;;;;;;53.07;18.87;;;;;7.30;95955.00;;;;8364351;28;20655;-69
2023/03/12 19:16:18;;;;;;;53.63;21.03;;;;;7.40;95944.00;;;;8359565;28;20809;-69
2023/03/12 19:20:28;;;;;;;56.97;20.77;;;;;7.40;95951.00;;;;8375638;28;20297;-69
2023/03/12 19:24:31;;;;;;;50.73;21.77;;;;;7.50;95958.00;;;;8372961;28;20720;-69
2023/03/12 19:28:35;;;;;;;59.70;22.00;;;;;7.50;95948.00;;;;8370683;28;20208;-69
2023/03/12 19:32:38;;;;;;;52.22;20.30;;;;;7.60;95947.00;;;;8363679;28;20593;-69
2023/03/12 19:36:47;;;;;;;61.63;21.80;;;;;7.50;95948.00;;;;8377591;28;20196;-70
2023/03/12 19:40:51;;;;;;;51.28;21.05;;;;;7.50;95956.00;;;;8377183;28;20975;-69
2023/03/12 19:44:57;;;;;;;53.30;21.57;;;;;7.50;95955.00;;;;8377098;28;20239;-69
2023/03/12 19:49:00;;;;;;;61.77;23.37;;;;;7.50;95965.00;;;;8369568;28;20192;-69
2023/03/12 19:53:07;;;;;;;57.23;22.57;;;;;7.50;95965.00;;;;8366895;28;20196;-69
2023/03/12 19:57:11;;;;;;;54.30;22.27;;;;;7.50;95964.00;;;;8362721;28;20216;-69
2023/03/12 20:01:17;;;;;;;62.67;23.23;;;;;7.40;95970.00;;;;8365025;28;20282;-68
2023/03/12 20:05:20;;;;;;;60.10;22.20;;;;;7.40;95970.00;;;;8364131;28;20220;-69
2023/03/12 20:09:25;;;;;;;66.33;21.57;;;;;7.50;95962.00;;;;8368000;28;20196;-68
2023/03/12 20:13:29;;;;;;;72.87;23.17;;;;;7.40;95977.00;;;;8366486;28;20607;-69
2023/03/12 20:17:38;;;;;;;89.00;23.67;;;;;7.40;95978.00;;;;8369919;28;20258;-68
2023/03/12 20:21:47;;;;;;;79.13;22.97;;;;;7.40;95980.00;;;;8372686;28;20756;-70
2023/03/12 20:25:56;;;;;;;74.10;23.20;;;;;7.40;95984.00;;;;8368331;28;20851;-69
2023/03/12 20:30:02;;;;;;;88.37;23.83;;;;;7.40;95979.00;;;;8355995;28;20193;-69
2023/03/12 20:34:07;;;;;;;91.37;24.83;;;;;7.40;95982.00;;;;8372155;28;20752;-69